Time;durP1;ratioP1;P1;durP2;ratioP2;P2;SDS_P1;SDS_P2;PMS_P1;PMS_P2;Temp;Humidity;BMP_temperature;BMP_pressure;BME280_temperature;BME280_humidity;BME280_pressure;Samples;Min_cycle;Max_cycle;Signal;HPM_P1;HPM_P2
2022/10/18 00:01:08;;;;;;;0.00;0.00;;;;;;;15.22;100.00;97482.66;5025292;28;20493;-75
2022/10/18 00:03:54;;;;;;;0.10;0.10;;;;;;;15.21;100.00;97481.03;5025132;28;20507;-73
2022/10/18 00:06:40;;;;;;;0.10;0.10;;;;;;;15.17;100.00;97466.41;5017364;28;20033;-76
2022/10/18 00:09:26;;;;;;;0.20;0.20;;;;;;;15.22;100.00;97488.06;5025897;28;20044;-75
2022/10/18 00:12:14;;;;;;;0.10;0.10;;;;;;;15.21;100.00;97478.34;5022509;28;20380;-75
2022/10/18 00:15:01;;;;;;;0.10;0.10;;;;;;;15.11;100.00;97491.72;5025106;28;20033;-74
2022/10/18 00:17:47;;;;;;;0.10;0.10;;;;;;;15.08;100.00;97486.81;5027181;28;20136;-75
2022/10/18 00:20:33;;;;;;;0.10;0.10;;;;;;;15.10;100.00;97487.41;5024484;28;20393;-75
2022/10/18 00:23:19;;;;;;;0.10;0.10;;;;;;;15.15;100.00;97481.22;5024746;28;20056;-76
2022/10/18 00:26:07;;;;;;;1.02;0.47;;;;;;;15.17;100.00;97485.28;5025283;28;20149;-74
2022/10/18 00:28:57;;;;;;;0.43;0.20;;;;;;;15.18;100.00;97492.34;5024282;28;20049;-74
2022/10/18 00:31:43;;;;;;;0.20;0.10;;;;;;;15.18;100.00;97484.25;5022869;28;20390;-76
2022/10/18 00:34:29;;;;;;;0.50;0.25;;;;;;;15.25;100.00;97484.88;5010865;28;20052;-76
2022/10/18 00:37:16;;;;;;;0.65;0.30;;;;;;;15.28;100.00;97481.66;5023134;28;20032;-75
2022/10/18 00:40:03;;;;;;;0.45;0.20;;;;;;;15.29;100.00;97491.38;5024894;28;20036;-74
2022/10/18 00:42:48;;;;;;;0.63;0.30;;;;;;;15.32;100.00;97490.03;5024877;28;20053;-76
2022/10/18 00:45:34;;;;;;;0.65;0.30;;;;;;;15.30;100.00;97490.28;5027184;28;20049;-76
2022/10/18 00:48:20;;;;;;;0.70;0.30;;;;;;;15.27;100.00;97468.44;5024205;28;20455;-76
2022/10/18 00:51:06;;;;;;;1.13;0.43;;;;;;;15.18;100.00;97465.38;5026376;28;20345;-77
2022/10/18 00:53:52;;;;;;;0.30;0.20;;;;;;;15.16;100.00;97467.50;5026141;28;20113;-76
2022/10/18 00:56:38;;;;;;;1.10;0.40;;;;;;;15.18;100.00;97453.78;5025285;28;20522;-75
2022/10/18 00:59:25;;;;;;;0.88;0.40;;;;;;;15.18;100.00;97449.22;5024185;28;20663;-76
2022/10/18 01:02:13;;;;;;;1.67;0.80;;;;;;;15.22;100.00;97455.69;5023723;28;20041;-76
2022/10/18 01:04:59;;;;;;;1.10;0.50;;;;;;;15.26;100.00;97461.41;5023943;28;20076;-73
2022/10/18 01:08:12;;;;;;;1.20;0.52;;;;;;;15.28;100.00;97453.88;5025799;28;20358;-76
2022/10/18 01:11:09;;;;;;;1.55;0.77;;;;;;;15.28;100.00;97452.00;5025045;28;20204;-74
2022/10/18 01:14:01;;;;;;;2.00;1.10;;;;;;;15.21;100.00;97448.69;5013327;28;20044;-75
2022/10/18 01:16:59;;;;;;;2.28;1.20;;;;;;;15.21;100.00;97439.78;5023504;28;20047;-76
2022/10/18 01:20:00;;;;;;;3.03;1.73;;;;;;;15.20;100.00;97433.56;5024773;28;20131;-76
2022/10/18 01:23:09;;;;;;;2.55;1.35;;;;;;;15.18;100.00;97443.00;5027050;28;20132;-75
2022/10/18 01:26:14;;;;;;;2.15;1.20;;;;;;;15.16;100.00;97445.94;5028682;28;20061;-75
2022/10/18 01:29:30;;;;;;;1.88;0.82;;;;;;;15.11;100.00;97451.28;5019530;28;20380;-75
2022/10/18 01:32:27;;;;;;;1.65;0.65;;;;;;;15.07;100.00;97444.75;5026808;28;20049;-76
2022/10/18 01:35:18;;;;;;;0.50;0.30;;;;;;;15.05;100.00;97444.19;5032094;28;20047;-73
2022/10/18 01:38:11;;;;;;;1.42;0.60;;;;;;;14.90;100.00;97444.03;5014819;28;20052;-74
2022/10/18 01:41:00;;;;;;;2.22;1.20;;;;;;;14.95;100.00;97434.13;5032739;28;20037;-75
2022/10/18 01:43:50;;;;;;;2.40;1.40;;;;;;;14.92;100.00;97436.50;5028298;28;20448;-75
2022/10/18 01:46:38;;;;;;;2.40;1.38;;;;;;;14.87;100.00;97425.69;5030536;28;20045;-75
2022/10/18 01:49:25;;;;;;;2.80;1.65;;;;;;;14.90;100.00;97425.16;5031116;28;20494;-72
2022/10/18 01:52:13;;;;;;;2.38;1.30;;;;;;;14.90;100.00;97431.38;5033321;28;20041;-73
2022/10/18 01:55:00;;;;;;;2.83;1.60;;;;;;;14.94;100.00;97432.50;5029189;28;20331;-74
2022/10/18 01:58:12;;;;;;;2.08;1.00;;;;;;;14.96;100.00;97445.72;5032619;28;20461;-75
2022/10/18 02:01:16;;;;;;;0.10;0.10;;;;;;;14.99;100.00;97445.22;5031376;28;20045;-73
2022/10/18 02:04:53;;;;;;;0.10;0.10;;;;;;;15.13;100.00;97445.63;5031040;28;20334;-73
2022/10/18 02:07:55;;;;;;;0.10;0.10;;;;;;;15.18;100.00;97434.91;5004709;28;20041;-75
2022/10/18 02:10:48;;;;;;;0.10;0.10;;;;;;;15.21;100.00;97431.69;5031000;28;20044;-75
2022/10/18 02:13:58;;;;;;;0.10;0.10;;;;;;;15.18;100.00;97433.03;5030548;28;20117;-74
2022/10/18 02:16:49;;;;;;;0.10;0.10;;;;;;;15.12;100.00;97423.25;5029277;28;20106;-74
2022/10/18 02:19:42;;;;;;;0.10;0.10;;;;;;;15.09;100.00;97423.75;5030073;28;20548;-75
2022/10/18 02:22:32;;;;;;;0.00;0.00;;;;;;;15.03;100.00;97420.19;5028123;28;20778;-73
2022/10/18 02:25:22;;;;;;;0.22;0.10;;;;;;;15.02;100.00;97418.56;5030555;28;20405;-74
2022/10/18 02:28:08;;;;;;;0.10;0.10;;;;;;;15.01;100.00;97413.41;5026893;28;20044;-73
2022/10/18 02:31:25;;;;;;;0.17;0.10;;;;;;;15.00;100.00;97409.09;5028010;28;20291;-74
2022/10/18 02:34:24;;;;;;;0.10;0.10;;;;;;;15.00;100.00;97423.38;5028282;28;20620;-74
2022/10/18 02:37:12;;;;;;;0.10;0.10;;;;;;;15.03;100.00;97420.19;5025475;28;20391;-74
2022/10/18 02:39:58;;;;;;;0.00;0.00;;;;;;;15.04;100.00;97418.31;5025545;28;20654;-74
2022/10/18 02:42:47;;;;;;;0.00;0.00;;;;;;;15.02;100.00;97413.19;5024614;28;20132;-75
2022/10/18 02:45:34;;;;;;;0.10;0.10;;;;;;;14.92;100.00;97418.44;5012991;28;20056;-73
2022/10/18 02:48:20;;;;;;;0.10;0.10;;;;;;;14.84;100.00;97420.78;5026663;28;20338;-73
2022/10/18 02:51:08;;;;;;;0.10;0.10;;;;;;;14.86;100.00;97418.63;5025387;28;20045;-75
2022/10/18 02:53:54;;;;;;;0.10;0.10;;;;;;;14.87;100.00;97431.06;5023785;28;20492;-74
2022/10/18 02:56:39;;;;;;;0.00;0.00;;;;;;;14.87;100.00;97426.50;5021209;28;20037;-73
2022/10/18 02:59:25;;;;;;;0.10;0.10;;;;;;;14.89;100.00;97448.59;5024230;28;20045;-73
2022/10/18 03:02:11;;;;;;;0.10;0.10;;;;;;;14.90;100.00;97435.94;5023595;28;20052;-75
2022/10/18 03:04:57;;;;;;;0.00;0.00;;;;;;;14.97;100.00;97441.97;5028156;28;20519;-74
2022/10/18 03:07:43;;;;;;;0.10;0.10;;;;;;;14.99;100.00;97437.13;5024819;28;20041;-76
2022/10/18 03:10:31;;;;;;;0.10;0.10;;;;;;;15.01;100.00;97433.09;5025392;28;20428;-75
2022/10/18 03:13:18;;;;;;;0.17;0.10;;;;;;;14.98;100.00;97430.09;5022604;28;20500;-75
2022/10/18 03:16:04;;;;;;;0.10;0.10;;;;;;;14.97;100.00;97444.66;5023380;28;20341;-75
2022/10/18 03:18:50;;;;;;;0.00;0.00;;;;;;;14.94;100.00;97442.44;5023522;28;20247;-75
2022/10/18 03:21:35;;;;;;;0.10;0.10;;;;;;;14.95;100.00;97436.00;5018660;28;20444;-75
2022/10/18 03:24:21;;;;;;;0.10;0.10;;;;;;;14.95;100.00;97430.63;5024202;28;20052;-74
2022/10/18 03:27:07;;;;;;;0.10;0.10;;;;;;;14.90;100.00;97422.47;5025244;28;20475;-76
2022/10/18 03:29:53;;;;;;;0.10;0.10;;;;;;;14.74;100.00;97430.38;5014249;28;20045;-75
2022/10/18 03:32:39;;;;;;;0.00;0.00;;;;;;;14.73;100.00;97423.38;5026118;28;20140;-74
2022/10/18 03:35:25;;;;;;;0.00;0.00;;;;;;;14.74;100.00;97422.28;5023841;28;20068;-74
2022/10/18 03:38:11;;;;;;;0.03;0.03;;;;;;;14.70;100.00;97429.22;5025840;28;20041;-76
2022/10/18 03:40:57;;;;;;;0.10;0.10;;;;;;;14.71;100.00;97420.13;5026317;28;20514;-73
2022/10/18 03:43:43;;;;;;;0.08;0.08;;;;;;;14.66;100.00;97411.16;5020903;28;20119;-76
2022/10/18 03:46:28;;;;;;;0.10;0.10;;;;;;;14.71;100.00;97420.13;5025241;28;20049;-75
2022/10/18 03:49:14;;;;;;;0.10;0.10;;;;;;;14.72;100.00;97408.28;5022937;28;20056;-75
2022/10/18 03:52:00;;;;;;;0.10;0.10;;;;;;;14.75;100.00;97413.16;5024019;28;20059;-74
2022/10/18 03:54:46;;;;;;;0.28;0.20;;;;;;;14.71;100.00;97403.94;5022381;28;20041;-76
2022/10/18 03:57:32;;;;;;;0.10;0.10;;;;;;;14.64;100.00;97415.97;5025016;28;20040;-76
2022/10/18 04:00:18;;;;;;;0.00;0.00;;;;;;;14.62;100.00;97408.13;5024617;28;20496;-76
2022/10/18 04:03:04;;;;;;;0.10;0.10;;;;;;;14.62;100.00;97407.31;5024271;28;20048;-74
2022/10/18 04:05:50;;;;;;;0.00;0.00;;;;;;;14.65;100.00;97421.13;5027830;28;20053;-76
2022/10/18 04:08:36;;;;;;;0.10;0.10;;;;;;;14.68;100.00;97414.41;5024920;28;20044;-76
2022/10/18 04:11:22;;;;;;;0.10;0.10;;;;;;;14.70;100.00;97413.06;5027061;28;20179;-75
2022/10/18 04:14:10;;;;;;;0.10;0.10;;;;;;;14.72;100.00;97419.03;5008094;28;20075;-74
2022/10/18 04:16:56;;;;;;;0.10;0.10;;;;;;;14.75;100.00;97423.09;5012156;28;20037;-74
2022/10/18 04:19:41;;;;;;;0.10;0.10;;;;;;;14.79;100.00;97413.47;5010944;28;20095;-75
2022/10/18 04:22:27;;;;;;;0.10;0.10;;;;;;;14.78;100.00;97422.59;5011079;28;20057;-74
2022/10/18 04:25:13;;;;;;;0.10;0.10;;;;;;;14.84;100.00;97423.47;5022631;28;20087;-75
2022/10/18 04:27:59;;;;;;;0.10;0.10;;;;;;;14.85;100.00;97425.09;5023194;28;20045;-75
2022/10/18 04:30:50;;;;;;;0.10;0.10;;;;;;;14.76;100.00;97428.25;5024718;28;20285;-76
2022/10/18 04:33:36;;;;;;;0.00;0.00;;;;;;;14.76;100.00;97419.34;5025775;28;20037;-76
2022/10/18 04:36:23;;;;;;;0.00;0.00;;;;;;;14.84;100.00;97426.16;5025509;28;20123;-75
2022/10/18 04:39:08;;;;;;;0.10;0.10;;;;;;;14.81;100.00;97421.28;5006655;28;20135;-75
2022/10/18 04:41:54;;;;;;;0.00;0.00;;;;;;;14.83;100.00;97432.63;5021759;28;20037;-76
2022/10/18 04:44:40;;;;;;;0.10;0.10;;;;;;;14.79;100.00;97426.13;5026722;28;20041;-74
2022/10/18 04:47:26;;;;;;;0.10;0.10;;;;;;;14.75;100.00;97432.00;5023871;28;21710;-74
2022/10/18 04:50:12;;;;;;;0.10;0.10;;;;;;;14.76;100.00;97436.31;5024952;28;20037;-75
2022/10/18 04:52:57;;;;;;;0.10;0.10;;;;;;;14.81;100.00;97437.47;5025732;28;20095;-73
2022/10/18 04:55:45;;;;;;;0.10;0.10;;;;;;;14.80;100.00;97439.34;5023615;28;20124;-76
2022/10/18 04:58:31;;;;;;;0.10;0.10;;;;;;;14.81;100.00;97438.28;5024430;28;20043;-76
2022/10/18 05:01:17;;;;;;;0.08;0.08;;;;;;;14.79;100.00;97439.59;5024551;28;20041;-72
2022/10/18 05:04:03;;;;;;;0.15;0.10;;;;;;;14.77;100.00;97440.63;5026097;28;20861;-73
2022/10/18 05:06:49;;;;;;;1.48;0.65;;;;;;;14.72;100.00;97439.78;5017845;28;20051;-74
2022/10/18 05:09:35;;;;;;;2.00;0.95;;;;;;;14.68;100.00;97450.22;5026106;28;20483;-74
2022/10/18 05:12:21;;;;;;;3.58;1.90;;;;;;;14.59;100.00;97443.66;5025394;28;20501;-76
2022/10/18 05:15:09;;;;;;;3.78;2.03;;;;;;;14.64;100.00;97438.34;5025687;28;20045;-75
2022/10/18 05:17:55;;;;;;;4.30;2.35;;;;;;;14.55;100.00;97444.38;5024553;28;20159;-73
2022/10/18 05:20:41;;;;;;;2.80;1.35;;;;;;;14.44;100.00;97446.13;5025499;28;20128;-74
2022/10/18 05:23:26;;;;;;;2.53;1.15;;;;;;;14.48;100.00;97444.59;5025715;28;20037;-73
2022/10/18 05:26:12;;;;;;;1.42;0.63;;;;;;;14.40;100.00;97445.00;5027036;28;20044;-74
2022/10/18 05:28:58;;;;;;;1.67;0.95;;;;;;;14.42;100.00;97445.56;5024649;28;20535;-75
2022/10/18 05:31:44;;;;;;;3.15;2.15;;;;;;;14.42;100.00;97456.31;5025511;28;20602;-76
2022/10/18 05:34:30;;;;;;;3.55;2.55;;;;;;;14.42;100.00;97453.63;5025088;28;20042;-75
2022/10/18 05:37:17;;;;;;;1.70;0.90;;;;;;;14.38;100.00;97439.03;5025486;28;20083;-73
2022/10/18 05:40:04;;;;;;;0.15;0.15;;;;;;;14.34;100.00;97443.28;5024660;28;20207;-75
2022/10/18 05:42:52;;;;;;;0.10;0.10;;;;;;;14.29;100.00;97437.81;5021449;28;20352;-76
2022/10/18 05:45:38;;;;;;;0.10;0.10;;;;;;;14.33;100.00;97437.09;5026134;28;20051;-76
2022/10/18 05:48:24;;;;;;;0.43;0.30;;;;;;;14.40;100.00;97442.31;5023500;28;20038;-75
2022/10/18 05:51:10;;;;;;;0.35;0.20;;;;;;;14.41;100.00;97439.34;5024233;28;20048;-74
2022/10/18 05:53:57;;;;;;;0.10;0.10;;;;;;;14.40;100.00;97432.34;5022256;28;20473;-74
2022/10/18 05:56:43;;;;;;;1.10;0.50;;;;;;;14.27;100.00;97435.41;5024498;28;20517;-76
2022/10/18 05:59:29;;;;;;;2.00;1.05;;;;;;;14.26;100.00;97430.25;5011042;28;20041;-74
2022/10/18 06:02:15;;;;;;;2.00;1.00;;;;;;;14.19;100.00;97427.75;5022714;28;20135;-76
2022/10/18 06:05:00;;;;;;;1.90;1.00;;;;;;;14.14;100.00;97433.84;5023752;28;20264;-76
2022/10/18 06:07:46;;;;;;;2.85;1.40;;;;;;;14.21;100.00;97434.50;5025350;28;20041;-75
2022/10/18 06:10:32;;;;;;;1.83;0.73;;;;;;;14.28;100.00;97441.59;5029396;28;20123;-75
2022/10/18 06:13:18;;;;;;;2.65;1.35;;;;;;;14.31;100.00;97454.53;5026076;28;20053;-75
2022/10/18 06:16:04;;;;;;;4.43;2.05;;;;;;;14.31;100.00;97455.34;5029339;28;20041;-75
2022/10/18 06:18:53;;;;;;;3.63;1.52;;;;;;;14.31;100.00;97457.22;5028805;28;20605;-74
2022/10/18 06:21:38;;;;;;;3.28;1.50;;;;;;;14.31;100.00;97458.03;5028090;28;20587;-73
2022/10/18 06:24:25;;;;;;;1.10;0.40;;;;;;;14.22;100.00;97464.91;5022538;28;20355;-74
2022/10/18 06:27:11;;;;;;;0.10;0.10;;;;;;;14.23;100.00;97467.34;4999163;28;20050;-73
2022/10/18 06:29:57;;;;;;;0.10;0.10;;;;;;;14.33;100.00;97463.22;5009405;28;20872;-74
2022/10/18 06:32:43;;;;;;;0.10;0.10;;;;;;;14.34;100.00;97460.25;5005810;28;20068;-75
2022/10/18 06:35:28;;;;;;;0.17;0.10;;;;;;;14.37;100.00;97459.75;4998276;28;20080;-73
2022/10/18 06:38:14;;;;;;;0.03;0.03;;;;;;;14.39;100.00;97468.38;5010926;28;20047;-73
2022/10/18 06:41:01;;;;;;;0.15;0.08;;;;;;;14.40;100.00;97461.97;5013694;28;20107;-73
2022/10/18 06:43:48;;;;;;;0.10;0.10;;;;;;;14.41;100.00;97476.25;5008275;28;20466;-74
2022/10/18 06:46:34;;;;;;;0.10;0.10;;;;;;;14.39;100.00;97479.16;5011335;28;20285;-73
2022/10/18 06:49:20;;;;;;;0.05;0.05;;;;;;;14.41;100.00;97476.25;5011974;28;20046;-73
2022/10/18 06:52:06;;;;;;;0.10;0.10;;;;;;;14.46;100.00;97485.22;5008578;28;20673;-75
2022/10/18 06:54:52;;;;;;;0.10;0.10;;;;;;;14.54;100.00;97485.84;5011473;28;20048;-73
2022/10/18 06:57:38;;;;;;;0.10;0.10;;;;;;;14.58;100.00;97490.50;5011941;28;20053;-73
2022/10/18 07:00:27;;;;;;;0.22;0.10;;;;;;;14.61;100.00;97483.81;5009475;28;20473;-73
2022/10/18 07:03:13;;;;;;;0.10;0.10;;;;;;;14.65;100.00;97483.06;5007639;28;20039;-73
2022/10/18 07:06:01;;;;;;;0.10;0.10;;;;;;;14.67;100.00;97491.69;5010896;28;20034;-74
2022/10/18 07:08:49;;;;;;;0.10;0.10;;;;;;;14.76;100.00;97495.59;5008873;28;20132;-75
2022/10/18 07:11:34;;;;;;;0.10;0.10;;;;;;;14.83;100.00;97495.41;5011458;28;20049;-75
2022/10/18 07:14:20;;;;;;;0.10;0.10;;;;;;;14.74;100.00;97492.34;5008798;28;20492;-75
2022/10/18 07:17:07;;;;;;;0.10;0.10;;;;;;;14.83;100.00;97499.97;4994957;28;20136;-76
2022/10/18 07:19:52;;;;;;;0.10;0.10;;;;;;;14.85;100.00;97493.28;5011746;28;20339;-75
2022/10/18 07:22:38;;;;;;;0.10;0.10;;;;;;;14.92;100.00;97483.13;5011621;28;20057;-74
2022/10/18 07:25:24;;;;;;;0.10;0.10;;;;;;;14.90;100.00;97490.66;5022409;28;20057;-75
2022/10/18 07:28:10;;;;;;;0.10;0.10;;;;;;;14.90;100.00;97489.84;5017176;28;20044;-74
2022/10/18 07:30:56;;;;;;;0.10;0.10;;;;;;;14.95;100.00;97490.72;5027335;28;20713;-73
2022/10/18 07:33:42;;;;;;;0.10;0.10;;;;;;;14.87;100.00;97501.94;5024510;28;20537;-73
2022/10/18 07:36:28;;;;;;;0.10;0.10;;;;;;;14.84;100.00;97498.91;5027190;28;20045;-73
2022/10/18 07:39:14;;;;;;;0.13;0.10;;;;;;;14.87;100.00;97511.91;5027190;28;20513;-74
2022/10/18 07:41:59;;;;;;;0.10;0.10;;;;;;;14.86;100.00;97510.25;5026864;28;20098;-73
2022/10/18 07:44:45;;;;;;;0.10;0.10;;;;;;;14.94;100.00;97512.50;5026340;28;20666;-75
2022/10/18 07:47:31;;;;;;;0.10;0.10;;;;;;;14.97;100.00;97515.53;5025673;28;20730;-74
2022/10/18 07:50:17;;;;;;;0.10;0.10;;;;;;;15.02;100.00;97522.88;5026917;28;20449;-73
2022/10/18 07:53:03;;;;;;;0.00;0.00;;;;;;;15.09;100.00;97518.09;5026523;28;20398;-75
2022/10/18 07:55:48;;;;;;;0.10;0.10;;;;;;;15.18;100.00;97507.69;5025712;28;20515;-74
2022/10/18 07:58:34;;;;;;;0.05;0.05;;;;;;;15.36;100.00;97509.25;5027408;28;20618;-74
2022/10/18 08:01:22;;;;;;;0.10;0.10;;;;;;;15.49;100.00;97516.94;5024260;28;20037;-74
2022/10/18 08:04:07;;;;;;;0.10;0.10;;;;;;;15.52;100.00;97516.41;5021300;28;20387;-73
2022/10/18 08:06:53;;;;;;;0.10;0.10;;;;;;;15.45;100.00;97513.91;5016188;28;20048;-75
2022/10/18 08:09:39;;;;;;;0.10;0.10;;;;;;;15.55;100.00;97513.19;5007743;28;20047;-74
2022/10/18 08:12:25;;;;;;;0.17;0.10;;;;;;;15.58;100.00;97521.63;4994225;28;20252;-75
2022/10/18 08:15:11;;;;;;;0.10;0.10;;;;;;;15.56;100.00;97520.22;5023739;28;20179;-74
2022/10/18 08:17:57;;;;;;;0.20;0.10;;;;;;;15.52;100.00;97540.69;5027448;28;20052;-76
2022/10/18 08:20:44;;;;;;;0.10;0.10;;;;;;;15.55;100.00;97535.59;5028075;28;20093;-76
2022/10/18 08:23:30;;;;;;;0.10;0.10;;;;;;;15.57;100.00;97540.75;5029307;28;20048;-76
2022/10/18 08:26:18;;;;;;;0.00;0.00;;;;;;;15.57;100.00;97543.47;5025465;28;20051;-76
2022/10/18 08:29:04;;;;;;;0.10;0.10;;;;;;;15.55;100.00;97548.25;5030037;28;20341;-76
2022/10/18 08:31:50;;;;;;;0.10;0.10;;;;;;;15.64;100.00;97544.09;5026334;28;20041;-76
2022/10/18 08:34:35;;;;;;;0.10;0.10;;;;;;;15.73;100.00;97549.84;5024371;28;20494;-76
2022/10/18 08:37:22;;;;;;;0.08;0.08;;;;;;;15.86;100.00;97555.63;5027874;28;20049;-76
2022/10/18 08:40:11;;;;;;;0.10;0.10;;;;;;;15.94;100.00;97561.63;5026984;28;20501;-74
2022/10/18 08:43:03;;;;;;;0.10;0.10;;;;;;;16.02;100.00;97561.97;5027581;28;20123;-74
2022/10/18 08:45:52;;;;;;;0.10;0.10;;;;;;;15.95;100.00;97560.56;5028858;28;20052;-76
2022/10/18 08:48:43;;;;;;;0.10;0.10;;;;;;;15.95;100.00;97566.78;5028000;28;20505;-75
2022/10/18 08:51:36;;;;;;;0.10;0.10;;;;;;;15.97;100.00;97572.75;5029997;28;20049;-74
2022/10/18 08:54:51;;;;;;;0.03;0.03;;;;;;;15.88;100.00;97563.50;5026973;28;20045;-76
2022/10/18 08:57:37;;;;;;;0.17;0.10;;;;;;;16.06;100.00;97565.00;5024439;28;20124;-76
2022/10/18 09:00:27;;;;;;;0.10;0.10;;;;;;;16.06;100.00;97568.50;5025284;28;20043;-76
2022/10/18 09:03:27;;;;;;;0.10;0.10;;;;;;;16.13;100.00;97562.91;5027481;28;20358;-75
2022/10/18 09:06:38;;;;;;;0.10;0.10;;;;;;;16.07;100.00;97564.75;5028371;28;20445;-74
2022/10/18 09:09:33;;;;;;;0.10;0.10;;;;;;;16.00;100.00;97569.53;5026869;28;20068;-74
2022/10/18 09:12:30;;;;;;;0.10;0.10;;;;;;;16.10;100.00;97574.19;4997797;28;20127;-76
2022/10/18 09:15:38;;;;;;;0.10;0.10;;;;;;;16.11;100.00;97575.84;5022669;28;20052;-76
2022/10/18 09:18:31;;;;;;;0.10;0.10;;;;;;;16.04;100.00;97570.66;5023345;28;20544;-76
2022/10/18 09:21:35;;;;;;;0.10;0.10;;;;;;;15.91;100.00;97581.06;5029994;28;20041;-75
2022/10/18 09:24:36;;;;;;;0.20;0.15;;;;;;;15.76;100.00;97584.41;5034755;28;20045;-75
2022/10/18 09:27:46;;;;;;;0.20;0.20;;;;;;;15.70;100.00;97583.53;5032429;28;20044;-75
2022/10/18 09:30:42;;;;;;;0.10;0.10;;;;;;;15.90;100.00;97592.94;5035785;28;20383;-75
2022/10/18 09:34:01;;;;;;;0.20;0.20;;;;;;;16.28;100.00;97590.03;5032033;28;20163;-76
2022/10/18 09:36:51;;;;;;;0.20;0.20;;;;;;;16.23;100.00;97586.47;5027433;28;20044;-74
2022/10/18 09:39:39;;;;;;;0.10;0.10;;;;;;;16.05;100.00;97591.19;5027890;28;20476;-75
2022/10/18 09:42:46;;;;;;;0.20;0.20;;;;;;;16.17;100.00;97585.59;5020767;28;20044;-76
2022/10/18 09:45:49;;;;;;;0.10;0.10;;;;;;;16.10;100.00;97585.81;5037566;28;20387;-75
2022/10/18 09:48:50;;;;;;;0.00;0.00;;;;;;;16.14;100.00;97595.03;5033318;28;20037;-74
2022/10/18 09:51:42;;;;;;;0.10;0.10;;;;;;;16.17;100.00;97602.63;5036963;28;20086;-75
2022/10/18 09:54:36;;;;;;;0.10;0.10;;;;;;;16.27;100.00;97590.31;5027671;28;20091;-75
2022/10/18 09:57:22;;;;;;;0.20;0.20;;;;;;;16.32;100.00;97610.03;5033461;28;20045;-74
2022/10/18 10:00:19;;;;;;;0.10;0.10;;;;;;;16.21;100.00;97597.53;5031081;28;20119;-77
2022/10/18 10:03:13;;;;;;;0.20;0.20;;;;;;;15.99;100.00;97604.88;5033544;28;20060;-77
2022/10/18 10:06:16;;;;;;;0.13;0.13;;;;;;;15.88;100.00;97610.19;5025269;28;20041;-75
2022/10/18 10:09:16;;;;;;;0.10;0.10;;;;;;;16.01;100.00;97608.94;5028970;28;20084;-77
2022/10/18 10:12:02;;;;;;;0.20;0.20;;;;;;;16.22;100.00;97609.97;5033949;28;20361;-76
2022/10/18 10:14:48;;;;;;;0.15;0.15;;;;;;;16.53;100.00;97612.91;5007582;28;20068;-74
2022/10/18 10:17:34;;;;;;;0.10;0.10;;;;;;;16.66;100.00;97607.91;5032183;28;20461;-75
2022/10/18 10:20:23;;;;;;;0.20;0.20;;;;;;;16.80;100.00;97607.47;5032226;28;20032;-73
2022/10/18 10:23:19;;;;;;;0.10;0.10;;;;;;;16.82;100.00;97602.63;5033411;28;20041;-75
2022/10/18 10:26:37;;;;;;;0.10;0.10;;;;;;;16.68;100.00;97613.03;5038306;28;20037;-75
2022/10/18 10:29:45;;;;;;;0.10;0.10;;;;;;;16.53;100.00;97611.03;5039099;28;20044;-76
2022/10/18 10:32:45;;;;;;;0.10;0.10;;;;;;;16.60;100.00;97622.44;5037350;28;20109;-74
2022/10/18 10:35:39;;;;;;;0.10;0.10;;;;;;;16.75;100.00;97621.78;5032686;28;20373;-77
2022/10/18 10:38:28;;;;;;;0.20;0.20;;;;;;;16.85;100.00;97619.13;5033866;28;20033;-76
2022/10/18 10:41:22;;;;;;;0.20;0.20;;;;;;;17.19;100.00;97624.19;5038764;28;20049;-76
2022/10/18 10:44:29;;;;;;;0.20;0.20;;;;;;;17.56;100.00;97618.69;5039308;28;20111;-73
2022/10/18 10:47:30;;;;;;;0.10;0.10;;;;;;;18.28;100.00;97616.97;5034468;28;20095;-75
2022/10/18 10:50:24;;;;;;;0.20;0.20;;;;;;;19.17;100.00;97602.81;5033486;28;20666;-75
2022/10/18 10:53:29;;;;;;;0.20;0.20;;;;;;;20.34;100.00;97612.28;5019606;28;20040;-74
2022/10/18 10:56:26;;;;;;;0.20;0.20;;;;;;;20.02;100.00;97610.06;5036373;28;20056;-75
2022/10/18 10:59:16;;;;;;;0.10;0.10;;;;;;;19.65;100.00;97614.06;5033372;28;20041;-75
2022/10/18 11:02:17;;;;;;;0.10;0.10;;;;;;;19.09;100.00;97614.25;5021379;28;20326;-74
2022/10/18 11:05:23;;;;;;;0.10;0.10;;;;;;;18.65;100.00;97625.69;5038349;28;20449;-74
2022/10/18 11:08:12;;;;;;;0.20;0.20;;;;;;;18.34;100.00;97619.41;5033651;28;20041;-76
2022/10/18 11:11:29;;;;;;;0.10;0.10;;;;;;;18.41;100.00;97610.22;5036897;28;20049;-74
2022/10/18 11:14:23;;;;;;;0.10;0.10;;;;;;;18.55;100.00;97617.53;5007193;28;20049;-74
2022/10/18 11:17:33;;;;;;;0.10;0.10;;;;;;;18.38;100.00;97615.09;5028815;28;20289;-75
2022/10/18 11:20:26;;;;;;;0.15;0.15;;;;;;;18.28;100.00;97615.06;5036957;28;20040;-74
2022/10/18 11:23:15;;;;;;;0.13;0.13;;;;;;;18.18;100.00;97612.38;5032037;28;20152;-74
2022/10/18 11:26:10;;;;;;;0.20;0.20;;;;;;;18.82;100.00;97603.69;5028195;28;20254;-76
2022/10/18 11:29:18;;;;;;;0.10;0.10;;;;;;;19.25;100.00;97606.06;5012963;28;20037;-74
2022/10/18 11:32:31;;;;;;;0.20;0.20;;;;;;;19.68;100.00;97599.94;5031819;28;20580;-76
2022/10/18 11:35:48;;;;;;;0.30;0.30;;;;;;;26.32;100.00;97593.97;5031904;28;20029;-75
2022/10/18 11:39:13;;;;;;;0.10;0.10;;;;;;;24.12;100.00;97591.97;5029485;28;20478;-76
2022/10/18 11:42:13;;;;;;;0.10;0.10;;;;;;;21.81;100.00;97599.13;5035667;28;20328;-74
2022/10/18 11:44:58;;;;;;;0.10;0.10;;;;;;;20.37;100.00;97605.47;5032036;28;20478;-76
2022/10/18 11:47:59;;;;;;;0.10;0.10;;;;;;;19.56;100.00;97602.13;5035007;28;20409;-74
2022/10/18 11:50:48;;;;;;;;;;;;;;;19.04;100.00;97595.25;5035963;28;20514;-73
2022/10/18 11:53:39;;;;;;;0.10;0.10;;;;;;;18.77;100.00;97595.59;5035370;28;19924;-75
2022/10/18 11:56:41;;;;;;;0.10;0.10;;;;;;;18.64;100.00;97596.13;5025576;28;20331;-76
2022/10/18 11:59:37;;;;;;;0.10;0.10;;;;;;;18.54;100.00;97594.22;5032019;28;20175;-76
2022/10/18 12:02:47;;;;;;;0.17;0.17;;;;;;;18.62;100.00;97596.41;5037003;28;20045;-76
2022/10/18 12:05:37;;;;;;;0.10;0.10;;;;;;;19.30;100.00;97587.88;5035885;28;20055;-74
2022/10/18 12:08:31;;;;;;;0.13;0.13;;;;;;;19.65;100.00;97586.91;5034394;28;20029;-75
2022/10/18 12:11:27;;;;;;;0.00;0.00;;;;;;;18.89;100.00;97593.38;5037657;28;20040;-75
2022/10/18 12:14:26;;;;;;;0.10;0.10;;;;;;;18.73;100.00;97588.28;5033024;28;20397;-75
2022/10/18 12:17:38;;;;;;;0.20;0.20;;;;;;;19.52;100.00;97587.50;5035481;28;20042;-76
2022/10/18 12:20:50;;;;;;;0.20;0.20;;;;;;;27.11;100.00;97568.03;5034038;28;20032;-75
2022/10/18 12:24:12;;;;;;;0.00;0.00;;;;;;;26.17;92.25;97578.00;5031540;28;20155;-74
2022/10/18 12:27:01;;;;;;;0.10;0.10;;;;;;;24.16;100.00;97576.59;5005674;28;20033;-74
2022/10/18 12:30:23;;;;;;;0.10;0.10;;;;;;;22.06;100.00;97573.41;5022825;28;20049;-75
2022/10/18 12:33:13;;;;;;;0.10;0.10;;;;;;;22.37;100.00;97581.16;5009271;28;20353;-76
2022/10/18 12:36:14;;;;;;;0.20;0.20;;;;;;;22.81;100.00;97567.03;5028130;28;20321;-74
2022/10/18 12:39:03;;;;;;;0.20;0.20;;;;;;;28.50;90.66;97567.97;5023453;28;20041;-75
2022/10/18 12:41:53;;;;;;;0.10;0.10;;;;;;;26.78;91.26;97565.03;5028022;28;20666;-76
2022/10/18 12:44:39;;;;;;;0.10;0.10;;;;;;;23.87;100.00;97574.22;5030778;28;20151;-76
2022/10/18 12:47:26;;;;;;;0.00;0.00;;;;;;;22.65;100.00;97579.34;5027181;28;20051;-76
2022/10/18 12:50:36;;;;;;;0.05;0.05;;;;;;;22.57;100.00;97575.38;5017616;28;20045;-76
2022/10/18 12:53:24;;;;;;;;;;;;;;;24.84;100.00;97566.44;5036006;28;20052;-76
2022/10/18 12:56:29;;;;;;;0.20;0.20;;;;;;;29.48;72.85;97559.09;5034926;28;20042;-76
2022/10/18 12:59:15;;;;;;;0.10;0.10;;;;;;;30.22;72.24;97566.97;5030508;28;20302;-77
2022/10/18 13:02:19;;;;;;;0.00;0.00;;;;;;;26.63;88.08;97562.81;5032223;28;20346;-74
2022/10/18 13:05:42;;;;;;;0.10;0.10;;;;;;;25.72;91.54;97559.06;5034279;28;20049;-74
2022/10/18 13:08:32;;;;;;;0.08;0.08;;;;;;;23.45;100.00;97559.81;5031739;28;20122;-77
2022/10/18 13:11:34;;;;;;;0.00;0.00;;;;;;;22.02;100.00;97575.09;5031675;28;20207;-75
2022/10/18 13:14:36;;;;;;;0.00;0.00;;;;;;;21.28;100.00;97577.44;5023840;28;20044;-75
2022/10/18 13:17:43;;;;;;;0.10;0.10;;;;;;;21.51;100.00;97578.53;5031549;28;20041;-74
2022/10/18 13:20:47;;;;;;;0.00;0.00;;;;;;;21.18;100.00;97577.56;5028737;28;20123;-76